Time;durP1;ratioP1;P1;durP2;ratioP2;P2;SDS_P1;SDS_P2;PMS_P1;PMS_P2;Temp;Humidity;BMP_temperature;BMP_pressure;BME280_temperature;BME280_humidity;BME280_pressure;Samples;Min_cycle;Max_cycle;Signal;HPM_P1;HPM_P2
2021/09/13 00:00:26;;;;;;;7.28;6.18;;;;;;;15.21;100.00;99498.50;5074650;28;20268;-73
2021/09/13 00:02:54;;;;;;;7.45;6.40;;;;;;;15.16;100.00;99500.72;5074552;28;20221;-73
2021/09/13 00:05:22;;;;;;;7.00;6.30;;;;;;;15.11;100.00;99508.38;5074874;28;20187;-73
2021/09/13 00:07:49;;;;;;;6.78;6.10;;;;;;;14.99;100.00;99505.63;5074225;28;20192;-73
2021/09/13 00:10:15;;;;;;;6.28;5.68;;;;;;;15.03;100.00;99506.25;5074646;28;20630;-73
2021/09/13 00:12:42;;;;;;;9.23;6.00;;;;;;;14.97;100.00;99509.44;5074127;28;20203;-73
2021/09/13 00:15:11;;;;;;;9.10;6.07;;;;;;;14.95;100.00;99504.13;5074386;28;20287;-73
2021/09/13 00:17:38;;;;;;;7.18;6.05;;;;;;;15.06;100.00;99503.31;5074167;28;20677;-73
2021/09/13 00:20:07;;;;;;;6.90;6.30;;;;;;;15.16;100.00;99503.44;5074421;28;20188;-73
2021/09/13 00:22:34;;;;;;;5.97;5.38;;;;;;;15.01;100.00;99502.78;5074147;28;20193;-74
2021/09/13 00:25:01;;;;;;;6.38;5.57;;;;;;;14.93;100.00;99502.53;5074413;28;20599;-73
2021/09/13 00:27:27;;;;;;;7.60;6.30;;;;;;;15.11;100.00;99500.25;5073681;28;20224;-74
2021/09/13 00:29:54;;;;;;;7.65;5.65;;;;;;;15.01;100.00;99500.97;5073922;28;20203;-74
2021/09/13 00:32:20;;;;;;;6.75;6.10;;;;;;;14.89;100.00;99495.63;5074004;28;20604;-73
2021/09/13 00:34:47;;;;;;;6.55;5.88;;;;;;;14.86;100.00;99495.88;5073500;28;20199;-73
2021/09/13 00:37:15;;;;;;;6.53;5.90;;;;;;;14.87;100.00;99495.72;5073583;28;20216;-73
2021/09/13 00:39:42;;;;;;;6.35;5.78;;;;;;;14.75;100.00;99492.13;5073800;28;20671;-74
2021/09/13 00:42:08;;;;;;;12.70;6.25;;;;;;;14.83;100.00;99490.66;5073933;28;20278;-73
2021/09/13 00:44:35;;;;;;;6.53;5.95;;;;;;;14.85;100.00;99486.00;5073802;28;20196;-74
2021/09/13 00:47:02;;;;;;;6.72;6.05;;;;;;;14.76;100.00;99491.13;5073469;28;20224;-73
2021/09/13 00:49:28;;;;;;;7.25;6.38;;;;;;;14.64;100.00;99483.97;5073778;28;20195;-73
2021/09/13 00:51:55;;;;;;;6.55;5.85;;;;;;;14.72;100.00;99489.66;5073435;28;20545;-73
2021/09/13 00:54:23;;;;;;;6.53;5.93;;;;;;;14.63;100.00;99490.38;5073494;28;20216;-73
2021/09/13 00:56:50;;;;;;;6.22;5.38;;;;;;;14.62;100.00;99485.06;5073431;28;20563;-73
2021/09/13 00:59:16;;;;;;;6.95;5.82;;;;;;;14.57;100.00;99482.72;5073408;28;20280;-74
2021/09/13 01:01:43;;;;;;;7.88;6.18;;;;;;;14.49;100.00;99471.53;5072713;28;20197;-73
2021/09/13 01:04:10;;;;;;;6.13;5.40;;;;;;;14.47;100.00;99479.81;5072946;28;20193;-74
2021/09/13 01:06:37;;;;;;;6.60;5.38;;;;;;;14.48;100.00;99467.13;5073463;28;20189;-74
2021/09/13 01:09:04;;;;;;;6.45;5.85;;;;;;;14.53;100.00;99463.06;5073340;28;20196;-74
2021/09/13 01:11:33;;;;;;;6.65;5.90;;;;;;;14.59;100.00;99467.19;5072878;28;20227;-73
2021/09/13 01:14:00;;;;;;;7.40;5.80;;;;;;;14.54;100.00;99467.56;5073345;28;20638;-73
2021/09/13 01:16:26;;;;;;;6.63;6.00;;;;;;;14.46;100.00;99458.25;5073384;28;20217;-73
2021/09/13 01:18:53;;;;;;;6.75;5.80;;;;;;;14.45;100.00;99457.38;5073187;28;20205;-73
2021/09/13 01:21:20;;;;;;;7.00;5.68;;;;;;;14.49;100.00;99471.53;5073102;28;20267;-74
2021/09/13 01:23:48;;;;;;;6.85;6.15;;;;;;;14.51;100.00;99466.88;5073301;28;20710;-73
2021/09/13 01:26:15;;;;;;;6.43;5.82;;;;;;;14.67;100.00;99469.31;5072810;28;20319;-73
2021/09/13 01:28:42;;;;;;;6.28;5.68;;;;;;;14.72;100.00;99467.09;5073427;28;20276;-73
2021/09/13 01:31:09;;;;;;;8.07;6.28;;;;;;;14.59;100.00;99459.06;5072879;28;20224;-73
2021/09/13 01:33:35;;;;;;;5.75;5.32;;;;;;;14.56;100.00;99464.69;5072610;28;20184;-73
2021/09/13 01:36:02;;;;;;;6.82;6.20;;;;;;;14.37;100.00;99459.81;5073075;28;20628;-73
2021/09/13 01:38:31;;;;;;;6.25;5.65;;;;;;;14.42;100.00;99467.59;5073215;28;20542;-74
2021/09/13 01:40:59;;;;;;;10.45;7.07;;;;;;;14.67;100.00;99462.03;5072944;28;20191;-73
2021/09/13 01:43:25;;;;;;;6.30;5.70;;;;;;;14.65;99.98;99464.00;5072589;28;20207;-73
2021/09/13 01:45:52;;;;;;;7.53;5.85;;;;;;;14.55;100.00;99457.56;5073163;28;20188;-73
2021/09/13 01:48:19;;;;;;;5.70;5.18;;;;;;;14.60;100.00;99466.19;5073230;28;20193;-73
2021/09/13 01:50:47;;;;;;;6.40;5.60;;;;;;;14.56;100.00;99464.69;5072168;28;20716;-73
2021/09/13 01:53:13;;;;;;;5.43;4.93;;;;;;;14.58;100.00;99463.63;5072870;28;20258;-73
2021/09/13 01:55:40;;;;;;;7.30;6.32;;;;;;;14.43;100.00;99461.19;5072801;28;20205;-73
2021/09/13 01:58:08;;;;;;;6.78;6.00;;;;;;;14.29;100.00;99459.50;5072968;28;20619;-73
2021/09/13 02:00:35;;;;;;;6.72;6.05;;;;;;;14.34;100.00;99463.63;5072489;28;20199;-73
2021/09/13 02:03:01;;;;;;;8.73;6.47;;;;;;;14.31;100.00;99460.25;5064694;28;20686;-73
2021/09/13 02:05:28;;;;;;;6.13;5.63;;;;;;;14.43;100.00;99456.63;5072876;28;20617;-73
2021/09/13 02:07:54;;;;;;;7.38;5.57;;;;;;;14.25;100.00;99464.31;5072132;28;20284;-73
2021/09/13 02:10:21;;;;;;;6.65;5.80;;;;;;;14.32;100.00;99460.16;5072561;28;20220;-73
2021/09/13 02:12:48;;;;;;;7.40;5.80;;;;;;;14.27;100.00;99469.59;5072186;28;20224;-73
2021/09/13 02:15:16;;;;;;;7.88;7.07;;;;;;;14.26;100.00;99457.91;5072631;28;20198;-74
2021/09/13 02:17:44;;;;;;;6.50;5.90;;;;;;;14.46;100.00;99467.22;5072858;28;20637;-74
2021/09/13 02:20:12;;;;;;;6.45;5.85;;;;;;;14.46;100.00;99458.25;5072492;28;20200;-73
2021/09/13 02:22:39;;;;;;;6.65;6.03;;;;;;;14.45;100.00;99451.09;5072760;28;20286;-73
2021/09/13 02:25:08;;;;;;;6.47;5.85;;;;;;;14.34;100.00;99458.19;5072624;28;20188;-74
2021/09/13 02:27:34;;;;;;;5.80;5.30;;;;;;;14.12;100.00;99452.69;5072585;28;20196;-74
2021/09/13 02:30:01;;;;;;;7.03;6.40;;;;;;;14.09;100.00;99452.91;5072676;28;20315;-73
2021/09/13 02:32:29;;;;;;;6.07;5.53;;;;;;;14.30;100.00;99455.84;5072235;28;20276;-73
2021/09/13 02:34:56;;;;;;;7.15;5.97;;;;;;;14.30;100.00;99459.41;5072567;28;20294;-74
2021/09/13 02:37:22;;;;;;;8.13;5.55;;;;;;;14.51;100.00;99461.47;5071965;28;20212;-73
2021/09/13 02:39:49;;;;;;;9.15;6.00;;;;;;;14.63;99.07;99463.28;5072756;28;20200;-73
2021/09/13 02:42:15;;;;;;;6.05;5.40;;;;;;;14.80;96.78;99461.94;5072467;28;20220;-73
2021/09/13 02:44:42;;;;;;;9.65;5.55;;;;;;;14.76;95.48;99471.31;5064097;28;20212;-73
2021/09/13 02:47:08;;;;;;;6.18;5.53;;;;;;;14.71;96.21;99463.53;5072178;28;20279;-73
2021/09/13 02:49:36;;;;;;;6.30;5.70;;;;;;;14.71;96.21;99471.66;5071751;28;20192;-73
2021/09/13 02:52:03;;;;;;;7.50;5.18;;;;;;;14.78;96.47;99463.91;5072569;28;20191;-74
2021/09/13 02:54:30;;;;;;;6.15;5.57;;;;;;;14.85;96.04;99461.59;5071941;28;20189;-74
2021/09/13 02:56:57;;;;;;;5.75;5.25;;;;;;;14.99;94.60;99467.69;5071778;28;20725;-73
2021/09/13 02:59:23;;;;;;;6.55;5.95;;;;;;;15.02;93.92;99462.00;5072364;28;20541;-74
2021/09/13 03:01:50;;;;;;;6.20;5.60;;;;;;;15.01;93.88;99467.53;5071981;28;20227;-73
2021/09/13 03:04:17;;;;;;;10.95;6.15;;;;;;;14.94;94.06;99459.03;5075266;28;20196;-73
2021/09/13 03:06:45;;;;;;;6.70;5.75;;;;;;;14.96;93.50;99459.75;5075498;28;20291;-74
2021/09/13 03:09:11;;;;;;;6.10;5.60;;;;;;;15.10;93.35;99457.81;5075015;28;20196;-73
2021/09/13 03:11:38;;;;;;;6.20;4.60;;;;;;;15.25;92.01;99464.75;5075770;28;20185;-73
2021/09/13 03:14:05;;;;;;;6.18;5.60;;;;;;;15.02;93.61;99450.31;5075237;28;20185;-73
2021/09/13 03:16:31;;;;;;;6.07;5.47;;;;;;;15.05;93.38;99452.75;5075578;28;20591;-73
2021/09/13 03:18:58;;;;;;;6.57;5.97;;;;;;;15.17;92.54;99457.22;5075529;28;20506;-73
2021/09/13 03:21:24;;;;;;;5.75;5.22;;;;;;;15.21;92.58;99460.53;5075769;28;20181;-74
2021/09/13 03:23:53;;;;;;;6.78;6.07;;;;;;;15.20;92.10;99450.69;5075458;28;20197;-73
2021/09/13 03:26:19;;;;;;;6.40;5.80;;;;;;;15.00;93.83;99449.56;5074896;28;20690;-74
2021/09/13 03:28:46;;;;;;;6.55;5.95;;;;;;;15.05;93.59;99451.91;5075491;28;20195;-74
2021/09/13 03:31:13;;;;;;;7.03;6.32;;;;;;;14.98;94.27;99455.09;5075272;28;20201;-73
2021/09/13 03:33:39;;;;;;;5.57;5.07;;;;;;;14.80;95.83;99451.97;5075327;28;20189;-74
2021/09/13 03:36:06;;;;;;;6.25;5.70;;;;;;;14.73;97.11;99444.44;5074975;28;20300;-74
2021/09/13 03:38:33;;;;;;;5.75;5.25;;;;;;;14.81;96.91;99441.97;5074973;28;20283;-74
2021/09/13 03:41:02;;;;;;;6.10;5.47;;;;;;;14.82;97.62;99442.88;5074884;28;20524;-73
2021/09/13 03:43:28;;;;;;;6.55;5.70;;;;;;;14.83;97.25;99437.31;5074747;28;20204;-74
2021/09/13 03:45:55;;;;;;;8.68;6.57;;;;;;;14.97;96.40;99441.69;5075075;28;20177;-74
2021/09/13 03:48:22;;;;;;;7.65;6.95;;;;;;;15.13;94.76;99439.47;5074758;28;20234;-74
2021/09/13 03:50:49;;;;;;;7.50;6.38;;;;;;;15.17;93.84;99440.06;5067160;28;20250;-73
2021/09/13 03:53:15;;;;;;;7.10;6.45;;;;;;;15.20;92.71;99437.13;5074530;28;20185;-73
2021/09/13 03:55:42;;;;;;;6.57;5.85;;;;;;;15.21;92.51;99445.13;5074814;28;20189;-74
2021/09/13 03:58:10;;;;;;;8.93;5.70;;;;;;;15.30;91.56;99445.38;5074756;28;20573;-74
2021/09/13 04:00:36;;;;;;;7.03;5.93;;;;;;;15.33;91.50;99443.31;5074291;28;20199;-74
2021/09/13 04:03:05;;;;;;;6.45;5.85;;;;;;;15.27;91.65;99435.66;5074819;28;20223;-74
2021/09/13 04:05:33;;;;;;;6.80;6.15;;;;;;;15.14;92.74;99441.19;5074131;28;20193;-73
2021/09/13 04:08:33;;;;;;;7.20;6.50;;;;;;;14.93;94.21;99432.06;5074226;28;20184;-73
2021/09/13 04:11:07;;;;;;;7.78;6.70;;;;;;;14.87;95.11;99432.53;5073984;28;20184;-73
2021/09/13 04:13:35;;;;;;;7.18;6.47;;;;;;;14.73;96.27;99426.34;5073933;28;20545;-74
2021/09/13 04:16:01;;;;;;;6.32;5.78;;;;;;;14.76;97.15;99420.66;5074209;28;20212;-74
2021/09/13 04:18:28;;;;;;;7.32;6.63;;;;;;;14.66;96.98;99429.66;5074480;28;20268;-73
2021/09/13 04:20:54;;;;;;;7.35;6.65;;;;;;;14.67;97.62;99432.22;5074408;28;20284;-73
2021/09/13 04:23:21;;;;;;;9.77;6.65;;;;;;;14.82;96.29;99432.88;5074021;28;20220;-73
2021/09/13 04:25:48;;;;;;;7.10;6.40;;;;;;;14.80;96.19;99419.44;5073476;28;20235;-73
2021/09/13 04:28:14;;;;;;;7.35;6.57;;;;;;;14.75;96.52;99427.09;5074099;28;20630;-73
2021/09/13 04:30:42;;;;;;;8.73;6.47;;;;;;;14.88;96.03;99431.53;5073842;28;20542;-73
2021/09/13 04:33:09;;;;;;;7.07;6.38;;;;;;;14.75;96.30;99432.50;5066250;28;20701;-73
2021/09/13 04:35:35;;;;;;;8.85;6.03;;;;;;;14.92;95.50;99430.31;5074064;28;20275;-73
2021/09/13 04:38:02;;;;;;;7.03;6.32;;;;;;;14.84;95.75;99430.94;5073389;28;20201;-73
2021/09/13 04:40:28;;;;;;;8.85;6.28;;;;;;;14.82;96.12;99437.44;5073585;28;20193;-74
2021/09/13 04:42:55;;;;;;;8.02;6.88;;;;;;;14.83;95.93;99441.88;5073576;28;20185;-73
2021/09/13 04:45:22;;;;;;;7.78;6.50;;;;;;;14.91;94.98;99436.72;5073382;28;20181;-73
2021/09/13 04:47:50;;;;;;;10.35;6.53;;;;;;;14.81;96.47;99441.97;5073222;28;20201;-73
2021/09/13 04:50:16;;;;;;;7.35;6.65;;;;;;;14.82;96.31;99449.16;5073592;28;20272;-73
2021/09/13 04:52:43;;;;;;;9.20;6.95;;;;;;;14.91;96.19;99450.28;5073188;28;20287;-74
2021/09/13 04:55:10;;;;;;;8.55;7.75;;;;;;;14.92;94.86;99447.44;5073727;28;20220;-73
2021/09/13 04:57:36;;;;;;;13.23;8.60;;;;;;;15.09;93.09;99443.41;5073664;28;20551;-73
2021/09/13 05:00:04;;;;;;;6.82;6.13;;;;;;;15.09;92.47;99439.84;5073178;28;20226;-73
2021/09/13 05:02:30;;;;;;;6.85;5.97;;;;;;;15.13;92.31;99438.63;5073333;28;20540;-74
2021/09/13 05:04:58;;;;;;;10.00;8.38;;;;;;;15.18;91.67;99444.53;5073027;28;20196;-74
2021/09/13 05:07:25;;;;;;;7.20;6.50;;;;;;;14.87;93.16;99440.66;5073350;28;20248;-73
2021/09/13 05:09:51;;;;;;;7.13;6.43;;;;;;;14.80;95.05;99451.13;5072655;28;20197;-73
2021/09/13 05:12:18;;;;;;;9.02;7.10;;;;;;;14.92;94.04;99443.88;5073110;28;20216;-73
2021/09/13 05:14:45;;;;;;;8.60;6.95;;;;;;;14.82;94.42;99448.28;5073105;28;20215;-73
2021/09/13 05:17:11;;;;;;;11.27;7.85;;;;;;;14.82;94.95;99445.59;5072466;28;20224;-74
2021/09/13 05:19:38;;;;;;;8.20;6.95;;;;;;;14.88;94.88;99445.97;5072403;28;20185;-74
2021/09/13 05:22:06;;;;;;;7.97;6.85;;;;;;;14.77;94.60;99451.38;5069223;28;20191;-73
2021/09/13 05:24:32;;;;;;;10.02;7.45;;;;;;;14.74;95.65;99452.47;5072771;28;20704;-73
2021/09/13 05:26:59;;;;;;;16.55;14.27;;;;;;;14.73;96.12;99455.28;5071623;28;20232;-73
2021/09/13 05:29:25;;;;;;;11.18;7.63;;;;;;;14.84;95.67;99452.59;5072509;28;20191;-73
2021/09/13 05:31:53;;;;;;;8.88;8.07;;;;;;;14.80;95.16;99451.13;5072475;28;20228;-74
2021/09/13 05:34:19;;;;;;;9.55;8.55;;;;;;;14.84;94.92;99451.75;5072299;28;20615;-72
2021/09/13 05:36:46;;;;;;;10.32;7.43;;;;;;;14.55;96.07;99453.00;5071533;28;20237;-72
2021/09/13 05:39:14;;;;;;;8.55;7.30;;;;;;;14.48;97.65;99445.44;5072164;28;20291;-73
2021/09/13 05:41:40;;;;;;;10.52;9.57;;;;;;;14.41;98.38;99452.31;5071857;28;20267;-73
2021/09/13 05:44:07;;;;;;;9.65;8.65;;;;;;;14.68;97.29;99460.22;5072790;28;20216;-73
2021/09/13 05:46:34;;;;;;;10.25;7.88;;;;;;;14.68;96.44;99455.66;5072196;28;20294;-72
2021/09/13 05:49:05;;;;;;;7.38;6.78;;;;;;;15.01;93.11;99457.59;5073031;28;20627;-73
2021/09/13 05:51:32;;;;;;;12.40;8.13;;;;;;;15.06;91.64;99465.34;5072639;28;20223;-72
2021/09/13 05:53:58;;;;;;;8.57;7.13;;;;;;;14.83;93.16;99469.84;5072463;28;20195;-73
2021/09/13 05:56:26;;;;;;;8.85;7.95;;;;;;;14.87;93.49;99465.06;5072581;28;20657;-73
2021/09/13 05:58:53;;;;;;;9.07;8.18;;;;;;;14.89;93.78;99463.09;5073296;28;20207;-74
2021/09/13 06:01:19;;;;;;;8.75;7.85;;;;;;;14.94;93.27;99472.56;5072665;28;20188;-73
2021/09/13 06:03:46;;;;;;;8.40;7.60;;;;;;;15.03;92.55;99468.28;5072645;28;20216;-73
2021/09/13 06:06:13;;;;;;;10.07;7.28;;;;;;;14.97;92.40;99468.78;5072568;28;20205;-73
2021/09/13 06:08:40;;;;;;;7.95;7.20;;;;;;;15.14;90.74;99471.00;5072600;28;20211;-73
2021/09/13 06:11:06;;;;;;;8.95;6.88;;;;;;;15.11;91.53;99464.97;5072390;28;20200;-73
2021/09/13 06:13:34;;;;;;;9.65;8.68;;;;;;;15.27;90.57;99470.91;5066962;28;20217;-73
2021/09/13 06:16:01;;;;;;;8.43;7.68;;;;;;;15.35;89.45;99470.28;5059909;28;20197;-72
2021/09/13 06:18:28;;;;;;;7.88;7.10;;;;;;;15.42;89.17;99471.50;5052179;28;20244;-73
2021/09/13 06:20:55;;;;;;;9.45;7.80;;;;;;;15.25;90.09;99466.59;5053327;28;20186;-72
2021/09/13 06:23:21;;;;;;;9.48;7.65;;;;;;;15.09;91.85;99473.22;5054780;28;20607;-73
2021/09/13 06:25:48;;;;;;;9.45;8.20;;;;;;;15.27;90.93;99470.91;5065917;28;20699;-73
2021/09/13 06:28:14;;;;;;;9.80;8.80;;;;;;;15.23;91.18;99470.28;5068529;28;20189;-73
2021/09/13 06:30:43;;;;;;;10.85;9.75;;;;;;;15.35;90.97;99470.28;5064543;28;20193;-73
2021/09/13 06:33:10;;;;;;;12.88;8.60;;;;;;;15.50;88.85;99477.19;5058936;28;20185;-73
2021/09/13 06:35:36;;;;;;;12.30;9.68;;;;;;;15.54;89.02;99478.69;5060084;28;20247;-73
2021/09/13 06:38:03;;;;;;;13.73;10.45;;;;;;;15.75;87.33;99486.09;5073623;28;20236;-74
2021/09/13 06:40:30;;;;;;;13.82;10.07;;;;;;;15.81;87.24;99480.19;5076652;28;20181;-73
2021/09/13 06:42:57;;;;;;;12.20;10.45;;;;;;;15.98;85.46;99471.50;5076275;28;20200;-74
2021/09/13 06:45:23;;;;;;;11.88;10.38;;;;;;;16.15;84.37;99474.69;5075974;28;20181;-74
2021/09/13 06:47:52;;;;;;;12.57;9.93;;;;;;;16.26;82.56;99478.22;5076190;28;20196;-74
2021/09/13 06:50:21;;;;;;;11.00;8.57;;;;;;;16.33;82.01;99484.00;5059056;28;20201;-75
2021/09/13 06:52:49;;;;;;;12.70;8.73;;;;;;;16.36;81.66;99481.03;5061697;28;20195;-72
2021/09/13 06:55:16;;;;;;;12.65;7.40;;;;;;;16.30;81.41;99484.25;5075505;28;20243;-73
2021/09/13 06:57:43;;;;;;;10.70;7.53;;;;;;;16.38;81.13;99479.03;5074440;28;20573;-73
2021/09/13 07:00:12;;;;;;;9.98;8.85;;;;;;;16.43;81.57;99484.94;5075827;28;20208;-74
2021/09/13 07:02:40;;;;;;;15.60;8.57;;;;;;;16.56;81.20;99482.06;5075885;28;20203;-72
2021/09/13 07:05:10;;;;;;;9.50;7.03;;;;;;;16.70;80.20;99485.47;5074402;28;20198;-73
2021/09/13 07:07:37;;;;;;;12.13;7.80;;;;;;;16.73;80.29;99486.03;5074945;28;20695;-72
2021/09/13 07:10:06;;;;;;;8.50;7.70;;;;;;;16.80;79.46;99487.31;5075246;28;20637;-72
2021/09/13 07:12:32;;;;;;;11.02;7.28;;;;;;;17.13;78.09;99496.25;5056433;28;20708;-72
2021/09/13 07:14:59;;;;;;;6.15;5.57;;;;;;;16.97;78.48;99495.84;5068634;28;20276;-73
2021/09/13 07:17:26;;;;;;;8.13;6.85;;;;;;;17.19;77.89;99495.72;5071410;28;20615;-73
2021/09/13 07:19:52;;;;;;;10.13;9.25;;;;;;;17.11;77.75;99494.66;5068189;28;20267;-74
2021/09/13 07:22:21;;;;;;;7.95;5.18;;;;;;;17.30;75.70;99497.50;5066564;28;20201;-73
2021/09/13 07:24:48;;;;;;;6.95;5.43;;;;;;;17.33;74.49;99502.66;5074641;28;20546;-73
2021/09/13 07:27:15;;;;;;;8.32;6.28;;;;;;;17.53;74.92;99498.19;5061091;28;20221;-73
2021/09/13 07:29:42;;;;;;;10.70;5.93;;;;;;;17.57;74.40;99502.38;5073633;28;20232;-73
2021/09/13 07:32:08;;;;;;;7.47;5.40;;;;;;;17.74;73.28;99500.84;5067490;28;20219;-73
2021/09/13 07:34:35;;;;;;;8.57;5.60;;;;;;;17.88;73.13;99503.22;5072927;28;20229;-74
2021/09/13 07:37:04;;;;;;;6.13;5.00;;;;;;;17.88;72.32;99502.38;5072977;28;20195;-74
2021/09/13 07:39:32;;;;;;;7.95;7.15;;;;;;;18.05;71.75;99504.44;5063976;28;20238;-73
2021/09/13 07:41:59;;;;;;;8.15;5.45;;;;;;;18.11;70.91;99509.34;5061999;28;20521;-72
2021/09/13 07:44:26;;;;;;;6.50;5.90;;;;;;;18.37;70.85;99505.22;5062513;28;20230;-72
2021/09/13 07:46:53;;;;;;;6.30;4.72;;;;;;;18.42;70.46;99501.06;5067131;28;20656;-72
2021/09/13 07:49:20;;;;;;;5.65;5.13;;;;;;;18.23;70.56;99503.78;5066361;28;20670;-72
2021/09/13 07:51:47;;;;;;;5.40;4.90;;;;;;;18.43;69.14;99507.34;5062441;28;20219;-71
2021/09/13 07:54:14;;;;;;;8.38;5.68;;;;;;;18.61;68.64;99515.69;5065287;28;20578;-73
2021/09/13 07:56:43;;;;;;;8.80;5.20;;;;;;;18.51;68.55;99510.25;5057248;28;20188;-73
2021/09/13 07:59:09;;;;;;;5.40;4.70;;;;;;;18.57;68.77;99519.75;5060130;28;20222;-73
2021/09/13 08:01:36;;;;;;;5.10;4.60;;;;;;;18.50;68.79;99517.56;5070215;28;20269;-71
2021/09/13 08:04:03;;;;;;;6.93;4.32;;;;;;;18.60;68.36;99514.84;5073842;28;20232;-72
2021/09/13 08:06:29;;;;;;;7.95;4.82;;;;;;;18.69;68.24;99518.59;5074571;28;20324;-71
2021/09/13 08:08:56;;;;;;;7.82;5.55;;;;;;;18.87;67.86;99514.16;5074114;28;20282;-72
2021/09/13 08:11:22;;;;;;;13.10;5.93;;;;;;;19.22;67.08;99517.28;5074583;28;20192;-71
2021/09/13 08:13:50;;;;;;;12.77;5.93;;;;;;;19.25;66.37;99519.72;5074313;28;20638;-72
2021/09/13 08:16:18;;;;;;;5.57;5.05;;;;;;;19.43;65.72;99526.16;5074515;28;20198;-72
2021/09/13 08:18:45;;;;;;;12.40;5.22;;;;;;;19.43;65.73;99522.56;5073628;28;20269;-72
2021/09/13 08:21:11;;;;;;;9.30;4.95;;;;;;;19.43;65.75;99517.97;5074138;28;20184;-72
2021/09/13 08:23:38;;;;;;;6.37;4.10;;;;;;;19.43;65.65;99526.16;5073276;28;20568;-72
2021/09/13 08:26:06;;;;;;;7.70;4.60;;;;;;;19.56;65.31;99526.69;5072920;28;20999;-72
2021/09/13 08:28:33;;;;;;;5.40;4.80;;;;;;;19.74;64.48;99525.91;5073996;28;20232;-73
2021/09/13 08:31:02;;;;;;;8.00;4.30;;;;;;;19.86;64.23;99537.53;5072812;28;20920;-73
2021/09/13 08:33:28;;;;;;;6.37;4.83;;;;;;;20.16;63.43;99536.38;5073379;28;20443;-72
2021/09/13 08:35:55;;;;;;;4.83;4.33;;;;;;;20.17;63.54;99538.97;5073524;28;20473;-72
2021/09/13 08:38:22;;;;;;;5.20;4.23;;;;;;;20.24;62.72;99535.59;5073202;28;20804;-72
2021/09/13 08:40:48;;;;;;;6.37;5.87;;;;;;;20.21;62.30;99528.56;5073749;28;20514;-72
2021/09/13 08:43:15;;;;;;;6.90;5.93;;;;;;;19.96;62.99;99541.09;5073229;28;20546;-72
2021/09/13 08:45:45;;;;;;;4.80;4.30;;;;;;;20.16;62.68;99537.25;5073259;28;20517;-72
2021/09/13 08:48:16;;;;;;;4.90;4.30;;;;;;;20.19;62.65;99536.97;5073438;28;20518;-72
2021/09/13 08:51:04;;;;;;;5.40;4.90;;;;;;;20.53;61.79;99539.03;5073083;28;20448;-72
2021/09/13 08:53:33;;;;;;;5.50;5.00;;;;;;;20.61;61.55;99525.47;5073179;28;20909;-72
2021/09/13 08:56:02;;;;;;;15.30;12.30;;;;;;;20.77;61.41;99529.38;5072886;28;20454;-73
2021/09/13 08:58:33;;;;;;;10.33;6.57;;;;;;;21.04;60.37;99531.16;5072823;28;20474;-72
2021/09/13 09:01:00;;;;;;;4.87;4.40;;;;;;;20.91;59.56;99523.34;5072730;28;20959;-73
2021/09/13 09:03:29;;;;;;;9.33;6.30;;;;;;;21.05;60.09;99521.94;5064543;28;20433;-72
2021/09/13 09:05:56;;;;;;;4.63;4.03;;;;;;;20.77;60.02;99527.50;5072951;28;20439;-72
2021/09/13 09:08:27;;;;;;;7.20;5.40;;;;;;;20.83;60.74;99523.28;5072747;28;20475;-72
2021/09/13 09:10:55;;;;;;;6.73;6.13;;;;;;;21.35;58.78;99528.84;5073030;28;20900;-73
2021/09/13 09:13:22;;;;;;;6.70;4.90;;;;;;;21.44;58.16;99521.59;5072873;28;20537;-73
2021/09/13 09:15:57;;;;;;;6.10;4.50;;;;;;;21.80;57.24;99521.47;5072573;28;20432;-73
2021/09/13 09:18:25;;;;;;;5.20;4.43;;;;;;;21.93;56.45;99510.03;5067609;28;20565;-73
2021/09/13 09:20:52;;;;;;;5.37;4.80;;;;;;;22.11;56.09;99521.75;5072263;28;20435;-73
2021/09/13 09:23:19;;;;;;;5.03;3.63;;;;;;;22.19;55.20;99515.47;5071757;28;20522;-72
2021/09/13 09:25:47;;;;;;;5.93;5.00;;;;;;;22.27;54.93;99526.47;5072252;28;20475;-73
2021/09/13 09:28:16;;;;;;;5.17;4.27;;;;;;;22.22;55.61;99515.16;5072148;28;20769;-74
2021/09/13 09:30:46;;;;;;;4.63;3.90;;;;;;;22.40;54.75;99513.16;5071982;28;20439;-73
2021/09/13 09:33:14;;;;;;;7.53;4.43;;;;;;;22.59;53.84;99519.34;5072273;28;20523;-74
2021/09/13 09:35:43;;;;;;;7.73;3.87;;;;;;;22.32;54.21;99518.63;5072116;28;20925;-74
2021/09/13 09:38:27;;;;;;;5.77;3.83;;;;;;;22.26;54.35;99514.66;5072541;28;20574;-73
2021/09/13 09:41:00;;;;;;;4.83;3.47;;;;;;;22.38;54.38;99508.84;5072523;28;20450;-73
2021/09/13 09:43:26;;;;;;;5.30;3.10;;;;;;;22.36;53.60;99510.91;5072301;28;20467;-73
2021/09/13 09:45:53;;;;;;;8.90;5.73;;;;;;;22.52;53.78;99505.44;5071678;28;20451;-73
2021/09/13 09:48:20;;;;;;;4.83;4.00;;;;;;;22.24;53.99;99513.09;5072305;28;20477;-73
2021/09/13 09:50:46;;;;;;;4.70;4.20;;;;;;;22.57;53.62;99516.81;5071943;28;20518;-73
2021/09/13 09:53:19;;;;;;;6.10;3.73;;;;;;;22.81;52.02;99509.63;5072204;28;20510;-74
2021/09/13 09:55:51;;;;;;;4.43;3.10;;;;;;;22.49;52.96;99514.88;5071817;28;20525;-73
2021/09/13 09:58:18;;;;;;;4.17;3.63;;;;;;;22.58;52.89;99502.03;5063674;28;20498;-73
2021/09/13 10:00:45;;;;;;;3.40;3.10;;;;;;;22.64;52.49;99506.00;5071531;28;20536;-73
2021/09/13 10:03:28;;;;;;;4.73;3.53;;;;;;;22.83;51.79;99504.81;5071857;28;20431;-73
2021/09/13 10:05:54;;;;;;;4.00;2.73;;;;;;;22.72;51.91;99510.66;5071634;28;20443;-73
2021/09/13 10:08:23;;;;;;;6.20;3.17;;;;;;;22.82;52.37;99494.88;5064228;28;20434;-73
2021/09/13 10:10:50;;;;;;;4.23;3.40;;;;;;;23.18;51.65;99494.53;5071717;28;20453;-74
2021/09/13 10:13:16;;;;;;;3.40;3.03;;;;;;;23.14;51.23;99488.56;5075739;28;20441;-73
2021/09/13 10:15:43;;;;;;;3.83;3.17;;;;;;;23.03;51.67;99486.16;5076144;28;20895;-73
2021/09/13 10:18:10;;;;;;;3.23;2.93;;;;;;;23.34;50.14;99491.81;5074996;28;20474;-73
2021/09/13 10:20:36;;;;;;;4.13;3.00;;;;;;;23.24;51.19;99483.72;5076137;28;20829;-73
2021/09/13 10:23:03;;;;;;;4.53;3.20;;;;;;;23.19;51.31;99488.88;5075706;28;20441;-74
2021/09/13 10:25:32;;;;;;;3.40;3.10;;;;;;;23.18;50.24;99483.56;5075870;28;20571;-74
2021/09/13 10:28:05;;;;;;;6.33;3.60;;;;;;;23.42;49.85;99480.78;5075784;28;20438;-74
2021/09/13 10:30:34;;;;;;;3.70;2.80;;;;;;;23.44;49.63;99472.38;5068071;28;20438;-72
2021/09/13 10:33:12;;;;;;;4.50;3.40;;;;;;;23.46;49.93;99479.41;5075462;28;20437;-74
2021/09/13 10:35:56;;;;;;;3.23;2.73;;;;;;;23.67;48.92;99476.06;5068704;28;20844;-73
2021/09/13 10:38:44;;;;;;;3.67;2.63;;;;;;;23.79;48.20;99473.84;5075005;28;20481;-72
2021/09/13 10:41:33;;;;;;;5.20;4.27;;;;;;;23.76;48.18;99465.94;5075232;28;20848;-73
2021/09/13 10:44:07;;;;;;;4.60;3.70;;;;;;;23.52;48.52;99459.47;5075136;28;20471;-73
2021/09/13 10:47:02;;;;;;;3.63;3.20;;;;;;;23.69;48.39;99462.16;5067183;28;20852;-73
2021/09/13 10:49:28;;;;;;;3.67;3.37;;;;;;;23.66;48.30;99462.53;5069148;28;20426;-73
2021/09/13 10:52:28;;;;;;;3.90;3.07;;;;;;;23.43;49.11;99459.69;5075310;28;20950;-73
2021/09/13 10:55:24;;;;;;;3.63;3.13;;;;;;;23.41;49.22;99454.34;5069252;28;20442;-73
2021/09/13 10:58:02;;;;;;;4.27;2.60;;;;;;;23.53;48.72;99454.81;5069307;28;20524;-72
2021/09/13 11:00:58;;;;;;;8.23;3.60;;;;;;;23.82;48.23;99453.41;5074868;28;20453;-73
2021/09/13 11:03:37;;;;;;;3.00;2.70;;;;;;;23.49;49.10;99442.47;5075431;28;20504;-73
2021/09/13 11:06:25;;;;;;;3.40;3.07;;;;;;;23.61;49.35;99448.47;5075729;28;20863;-73
2021/09/13 11:08:53;;;;;;;3.80;2.63;;;;;;;23.79;48.57;99445.47;5069003;28;20462;-73
2021/09/13 11:11:22;;;;;;;5.20;3.50;;;;;;;23.83;48.57;99441.34;5075267;28;20502;-73
2021/09/13 11:13:55;;;;;;;4.03;3.73;;;;;;;23.83;48.42;99439.44;5075414;28;20855;-72
2021/09/13 11:16:24;;;;;;;3.30;2.70;;;;;;;23.81;48.26;99433.31;5075100;28;20458;-73
2021/09/13 11:18:51;;;;;;;4.33;3.47;;;;;;;23.49;49.02;99426.88;5074295;28;20524;-72
2021/09/13 11:21:19;;;;;;;3.10;2.60;;;;;;;23.71;48.95;99421.63;5075175;28;20976;-74
2021/09/13 11:23:47;;;;;;;3.87;2.70;;;;;;;23.85;48.03;99420.88;5066061;28;20473;-74
2021/09/13 11:26:16;;;;;;;2.37;2.17;;;;;;;23.81;47.58;99416.81;5074517;28;20477;-73
2021/09/13 11:28:56;;;;;;;4.97;4.47;;;;;;;24.08;47.83;99412.72;5074714;28;20864;-74
2021/09/13 11:31:34;;;;;;;4.73;3.13;;;;;;;24.23;47.61;99409.19;5074519;28;20479;-74
2021/09/13 11:34:02;;;;;;;3.53;2.53;;;;;;;24.15;47.99;99412.84;5074756;28;20484;-74